Time;durP1;ratioP1;P1;durP2;ratioP2;P2;SDS_P1;SDS_P2;PMS_P1;PMS_P2;Temp;Humidity;BMP_temperature;BMP_pressure;BME280_temperature;BME280_humidity;BME280_pressure;Samples;Min_cycle;Max_cycle;Signal;HPM_P1;HPM_P2
2022/12/15 00:38:43;;;;;;;;;;;;;;;8.83;91.15;94189.25;5033355;28;1162;-60
2022/12/15 01:22:40;;;;;;;;;;;;;;;8.47;96.33;94281.13;5131218;28;1019;-55
2022/12/15 01:25:07;;;;;;;;;;;;;;;8.48;95.98;94282.78;5131324;27;1080;-55
2022/12/15 01:27:33;;;;;;;;;;;;;;;8.49;95.83;94288.94;5131430;27;1023;-54
2022/12/15 01:29:59;;;;;;;;;;;;;;;8.56;95.61;94312.06;5131367;27;1199;-54
2022/12/15 01:32:26;;;;;;;;;;;;;;;8.68;95.29;94309.88;5131169;28;1046;-54
2022/12/15 01:34:53;;;;;;;;;;;;;;;8.82;93.55;94296.84;5131049;27;1528;-54
2022/12/15 01:37:19;;;;;;;;;;;;;;;8.88;94.31;94282.84;5130986;27;1094;-54
2022/12/15 01:42:29;;;;;;;;;;;;;;;8.71;93.68;94258.91;5131025;28;960;-54
2022/12/15 01:45:14;;;;;;;;;;;;;;;8.82;93.54;94263.06;5131035;28;957;-54
2022/12/15 01:47:40;;;;;;;;;;;;;;;8.89;92.92;94255.19;5129618;28;961;-55
2022/12/15 01:50:12;;;;;;;;;;;;;;;8.88;93.11;94262.38;5130797;27;921;-54
2022/12/15 01:52:38;;;;;;;;;;;;;;;8.92;93.02;94279.66;5130972;27;1059;-54
2022/12/15 01:55:05;;;;;;;;;;;;;;;9.03;92.53;94286.47;5130919;28;1032;-54
2022/12/15 01:57:31;;;;;;;;;;;;;;;9.09;92.12;94287.63;5130695;27;1202;-54
2022/12/15 01:59:59;;;;;;;;;;;;;;;9.15;91.79;94287.75;5130701;27;1910;-54
2022/12/15 02:02:26;;;;;;;;;;;;;;;9.16;91.71;94291.22;5130672;27;1067;-54
2022/12/15 02:04:55;;;;;;;;;;;;;;;9.12;91.69;94289.91;5130784;27;1024;-55
2022/12/15 02:07:21;;;;;;;;;;;;;;;9.14;91.40;94298.56;5130807;27;1031;-55
2022/12/15 02:09:49;;;;;;;;;;;;;;;9.14;91.03;94312.75;5130247;27;1560;-55
2022/12/15 02:12:34;;;;;;;;;;;;;;;9.13;91.38;94292.41;5119360;27;995;-55
2022/12/15 02:15:03;;;;;;;;;;;;;;;9.08;91.16;94268.09;5116810;28;1120;-54
2022/12/15 02:17:50;;;;;;;;;;;;;;;9.02;92.01;94243.97;5116645;28;1041;-54
2022/12/15 02:20:25;;;;;;;;;;;;;;;8.79;92.77;94250.88;5116639;28;1906;-54
2022/12/15 02:23:09;;;;;;;;;;;;;;;8.62;93.33;94251.94;5116760;28;1047;-55
2022/12/15 02:39:43;;;;;;;;;;;;;;;8.81;93.95;94280.03;5131643;27;1462;-55
2022/12/15 02:42:10;;;;;;;;;;;;;;;8.81;93.10;94284.53;5147486;27;956;-55
2022/12/15 02:44:39;;;;;;;;;;;;;;;8.75;93.34;94278.88;5131168;27;1568;-55
2022/12/15 02:47:17;;;;;;;;;;;;;;;8.77;93.27;94282.22;5131260;27;1984;-55
2022/12/15 02:49:49;;;;;;;;;;;;;;;8.79;92.88;94277.53;5131265;28;1059;-55
2022/12/15 02:52:29;;;;;;;;;;;;;;;8.81;92.78;94271.22;5131127;28;1056;-55
2022/12/15 02:55:07;;;;;;;;;;;;;;;8.73;93.23;94267.56;5131167;27;1119;-55
2022/12/15 02:57:51;;;;;;;;;;;;;;;8.63;93.38;94264.25;5131096;27;1110;-55
2022/12/15 03:00:17;;;;;;;;;;;;;;;8.56;93.81;94256.13;5131259;28;995;-55
2022/12/15 03:02:46;;;;;;;;;;;;;;;8.53;94.17;94258.28;5131064;27;1604;-55
2022/12/15 03:05:13;;;;;;;;;;;;;;;8.59;94.23;94266.47;5131121;27;1095;-55
2022/12/15 03:07:41;;;;;;;;;;;;;;;8.71;93.75;94264.25;5131162;27;1902;-55
2022/12/15 03:10:09;;;;;;;;;;;;;;;8.78;93.26;94253.72;5131175;27;1142;-55
2022/12/15 03:12:35;;;;;;;;;;;;;;;8.82;92.96;94246.22;5130852;27;1004;-55
2022/12/15 03:15:01;;;;;;;;;;;;;;;8.82;92.85;94248.88;5131018;28;1063;-55
2022/12/15 03:17:27;;;;;;;;;;;;;;;8.92;92.36;94261.00;5129621;28;1095;-55
2022/12/15 03:19:53;;;;;;;;;;;;;;;9.01;91.76;94272.47;5130795;28;1040;-54
2022/12/15 03:22:19;;;;;;;;;;;;;;;9.06;91.50;94272.78;5130699;28;1100;-54
2022/12/15 03:24:45;;;;;;;;;;;;;;;9.04;91.49;94271.28;5130907;27;996;-54
2022/12/15 03:27:11;;;;;;;;;;;;;;;8.95;91.92;94282.00;5130779;27;2034;-54
2022/12/15 03:29:37;;;;;;;;;;;;;;;8.78;92.82;94281.22;5130725;28;984;-54
2022/12/15 03:32:03;;;;;;;;;;;;;;;8.87;93.10;94289.19;5130684;28;1035;-54
2022/12/15 03:34:29;;;;;;;;;;;;;;;8.77;92.87;94278.72;5130469;27;969;-54
2022/12/15 03:36:55;;;;;;;;;;;;;;;8.59;93.89;94268.25;5130511;28;1607;-54
2022/12/15 03:39:21;;;;;;;;;;;;;;;8.67;93.62;94288.72;5124332;28;1214;-54
2022/12/15 03:41:47;;;;;;;;;;;;;;;8.62;93.92;94310.56;5116943;28;1115;-54
2022/12/15 03:44:13;;;;;;;;;;;;;;;8.67;93.91;94304.72;5116736;28;1040;-54
2022/12/15 03:46:39;;;;;;;;;;;;;;;8.72;93.70;94297.88;5115448;28;1123;-54
2022/12/15 03:49:05;;;;;;;;;;;;;;;8.84;93.03;94313.50;5116606;28;1930;-53
2022/12/15 03:51:31;;;;;;;;;;;;;;;8.78;93.01;94315.88;5116533;28;1062;-54
2022/12/15 03:53:57;;;;;;;;;;;;;;;8.85;92.81;94332.00;5116782;28;1019;-54
2022/12/15 03:56:23;;;;;;;;;;;;;;;8.87;92.43;94323.84;5116611;28;1020;-53
2022/12/15 03:58:49;;;;;;;;;;;;;;;8.80;92.76;94329.00;5115954;28;1041;-54
2022/12/15 04:01:26;;;;;;;;;;;;;;;8.79;92.92;94333.50;5116450;28;965;-54
2022/12/15 04:03:52;;;;;;;;;;;;;;;8.73;92.88;94339.53;5115167;28;1060;-54
2022/12/15 04:06:18;;;;;;;;;;;;;;;8.75;93.20;94345.50;5116525;28;960;-54
2022/12/15 04:08:44;;;;;;;;;;;;;;;8.70;93.37;94353.19;5116312;28;1910;-54
2022/12/15 04:11:10;;;;;;;;;;;;;;;8.65;93.55;94352.88;5116198;28;1044;-54
2022/12/15 04:13:36;;;;;;;;;;;;;;;8.77;93.05;94362.16;5116220;28;1027;-54
2022/12/15 04:16:02;;;;;;;;;;;;;;;8.72;93.38;94359.16;5116162;28;983;-54
2022/12/15 04:18:29;;;;;;;;;;;;;;;8.81;93.13;94367.19;5115979;28;1012;-54
2022/12/15 04:20:55;;;;;;;;;;;;;;;8.78;92.57;94369.19;5115982;28;1035;-54
2022/12/15 04:23:21;;;;;;;;;;;;;;;8.68;93.16;94387.16;5116268;28;1007;-53
2022/12/15 05:31:57;;;;;;;;;;;;;;;8.87;91.69;94468.59;5114728;28;1007;-57
2022/12/15 05:34:25;;;;;;;;;;;;;;;8.92;91.38;94489.44;5113571;28;988;-57
2022/12/15 05:36:51;;;;;;;;;;;;;;;9.08;90.50;94488.59;5114486;28;1567;-57
2022/12/15 05:39:18;;;;;;;;;;;;;;;9.10;90.21;94486.59;5114400;28;1219;-57
2022/12/15 05:41:44;;;;;;;;;;;;;;;9.12;90.00;94492.59;5114415;28;1036;-57
2022/12/15 05:44:11;;;;;;;;;;;;;;;9.11;89.97;94493.59;5113247;28;1044;-57
2022/12/15 05:46:37;;;;;;;;;;;;;;;9.11;89.35;94507.75;5114311;28;1025;-57
2022/12/15 05:49:04;;;;;;;;;;;;;;;9.05;89.99;94519.13;5113373;28;1930;-55
2022/12/15 05:51:31;;;;;;;;;;;;;;;9.08;90.00;94526.75;5114435;28;960;-56
2022/12/15 05:53:57;;;;;;;;;;;;;;;9.09;89.73;94524.94;5114423;28;964;-56
2022/12/15 05:56:24;;;;;;;;;;;;;;;9.09;89.61;94525.78;5114344;28;1032;-56
2022/12/15 05:58:50;;;;;;;;;;;;;;;9.12;89.66;94524.59;5114184;28;1034;-56
2022/12/15 06:01:17;;;;;;;;;;;;;;;9.03;89.77;94523.78;5114123;28;1040;-56
2022/12/15 06:03:43;;;;;;;;;;;;;;;8.99;90.05;94535.75;5114052;28;1031;-57
2022/12/15 06:06:10;;;;;;;;;;;;;;;8.98;90.00;94540.25;5114289;28;953;-57
2022/12/15 06:08:37;;;;;;;;;;;;;;;8.98;90.40;94536.78;5114477;28;2007;-54
2022/12/15 06:11:03;;;;;;;;;;;;;;;8.90;90.84;94544.78;5114111;28;1020;-54
2022/12/15 06:13:31;;;;;;;;;;;;;;;9.01;90.74;94554.25;5113943;28;1055;-54
2022/12/15 06:15:58;;;;;;;;;;;;;;;8.86;91.10;94554.06;5113087;28;1019;-55
2022/12/15 06:18:25;;;;;;;;;;;;;;;8.96;90.69;94558.25;5113939;28;1040;-55
2022/12/15 06:21:02;;;;;;;;;;;;;;;9.00;90.20;94574.75;5114079;28;1023;-55
2022/12/15 06:23:28;;;;;;;;;;;;;;;8.93;90.76;94569.25;5113818;28;1056;-55
2022/12/15 06:25:54;;;;;;;;;;;;;;;8.93;90.52;94600.41;5112643;28;1020;-55
2022/12/15 06:28:22;;;;;;;;;;;;;;;8.76;92.02;94600.41;5113753;28;1914;-54
2022/12/15 06:30:50;;;;;;;;;;;;;;;8.92;91.51;94593.44;5112565;28;1064;-54
2022/12/15 06:33:17;;;;;;;;;;;;;;;9.10;90.55;94594.09;5112787;28;940;-54
2022/12/15 06:35:43;;;;;;;;;;;;;;;9.17;90.34;94580.94;5113748;28;1576;-55
2022/12/15 06:38:09;;;;;;;;;;;;;;;9.18;89.99;94595.94;5112567;28;1266;-56
2022/12/15 06:40:35;;;;;;;;;;;;;;;8.98;91.30;94606.09;5112394;28;1060;-60
2022/12/15 06:43:01;;;;;;;;;;;;;;;9.07;91.09;94601.59;5113750;28;1029;-55
2022/12/15 06:45:27;;;;;;;;;;;;;;;9.11;90.89;94603.78;5112593;28;1016;-55
2022/12/15 06:47:53;;;;;;;;;;;;;;;9.04;91.34;94604.59;5113559;28;1909;-55
2022/12/15 06:50:19;;;;;;;;;;;;;;;9.02;91.98;94603.94;5113783;28;1022;-58
2022/12/15 06:52:45;;;;;;;;;;;;;;;9.17;91.21;94595.09;5113492;28;1115;-56
2022/12/15 06:55:13;;;;;;;;;;;;;;;8.96;92.51;94605.44;5113514;28;1052;-55
2022/12/15 06:57:39;;;;;;;;;;;;;;;9.11;92.07;94613.63;5113777;28;1052;-54
2022/12/15 07:00:05;;;;;;;;;;;;;;;9.26;91.27;94613.75;5113761;28;1015;-55
2022/12/15 07:02:31;;;;;;;;;;;;;;;9.41;90.08;94620.13;5113432;28;1068;-55
2022/12/15 07:04:58;;;;;;;;;;;;;;;9.37;90.07;94616.97;5113675;28;1050;-55
2022/12/15 07:07:24;;;;;;;;;;;;;;;9.30;90.80;94623.13;5113374;28;1914;-55
2022/12/15 07:09:50;;;;;;;;;;;;;;;9.29;91.13;94626.78;5113424;28;1037;-55
2022/12/15 07:12:16;;;;;;;;;;;;;;;9.32;91.13;94626.47;5113406;28;1198;-55
2022/12/15 07:14:42;;;;;;;;;;;;;;;9.47;90.35;94634.66;5114864;28;1047;-55
2022/12/15 07:17:12;;;;;;;;;;;;;;;9.58;89.96;94643.13;5117478;28;984;-55
2022/12/15 07:19:38;;;;;;;;;;;;;;;9.63;89.42;94639.97;5117235;28;1134;-55
2022/12/15 07:22:04;;;;;;;;;;;;;;;9.62;89.34;94643.63;5117202;27;1048;-55
2022/12/15 07:24:30;;;;;;;;;;;;;;;9.65;89.29;94631.78;5115777;28;1052;-55
2022/12/15 07:26:56;;;;;;;;;;;;;;;9.64;89.48;94646.16;5117379;28;972;-56
2022/12/15 07:29:22;;;;;;;;;;;;;;;9.71;89.47;94653.31;5116910;28;1976;-55
2022/12/15 07:31:48;;;;;;;;;;;;;;;9.65;89.37;94655.81;5117123;28;1031;-55
2022/12/15 07:34:14;;;;;;;;;;;;;;;9.65;89.40;94658.47;5115870;28;1036;-55
2022/12/15 07:36:40;;;;;;;;;;;;;;;9.69;89.33;94652.63;5116888;28;1678;-55
2022/12/15 07:39:06;;;;;;;;;;;;;;;9.73;89.02;94669.13;5116687;28;1258;-55
2022/12/15 07:41:34;;;;;;;;;;;;;;;9.79;88.94;94665.81;5116777;28;960;-55
2022/12/15 07:44:01;;;;;;;;;;;;;;;9.85;88.88;94675.00;5116969;28;990;-55
2022/12/15 07:46:27;;;;;;;;;;;;;;;9.83;88.54;94664.47;5115664;28;1083;-54
2022/12/15 07:48:53;;;;;;;;;;;;;;;9.92;88.17;94666.13;5116797;28;1993;-54
2022/12/15 07:51:19;;;;;;;;;;;;;;;10.01;87.82;94664.28;5116752;28;1025;-54
2022/12/15 07:53:49;;;;;;;;;;;;;;;10.09;87.50;94676.78;5116561;28;976;-54
2022/12/15 07:56:15;;;;;;;;;;;;;;;10.26;87.08;94689.13;5116520;28;1048;-54
2022/12/15 07:58:41;;;;;;;;;;;;;;;10.28;87.26;94692.47;5116593;28;1000;-54
2022/12/15 08:01:09;;;;;;;;;;;;;;;10.37;86.86;94684.44;5116397;28;1052;-54
2022/12/15 08:03:36;;;;;;;;;;;;;;;10.57;85.71;94693.75;5116325;28;1044;-55
2022/12/15 08:06:10;;;;;;;;;;;;;;;10.46;85.67;94699.47;5116477;28;1011;-56
2022/12/15 08:08:36;;;;;;;;;;;;;;;10.46;85.82;94697.59;5116190;28;1993;-56
2022/12/15 08:11:06;;;;;;;;;;;;;;;10.55;86.03;94709.13;5116514;28;968;-55
2022/12/15 08:13:35;;;;;;;;;;;;;;;10.55;86.07;94709.13;5116386;28;1047;-55
2022/12/15 08:16:02;;;;;;;;;;;;;;;10.67;85.93;94699.72;5116502;28;1018;-56
2022/12/15 08:18:28;;;;;;;;;;;;;;;10.66;85.90;94697.22;5116118;28;1209;-54
2022/12/15 08:20:54;;;;;;;;;;;;;;;10.69;86.07;94703.03;5116163;28;979;-54
2022/12/15 08:23:20;;;;;;;;;;;;;;;10.66;86.26;94700.75;5116005;28;1330;-54
2022/12/15 08:25:46;;;;;;;;;;;;;;;10.62;86.09;94710.06;5115982;28;1032;-54
2022/12/15 08:28:13;;;;;;;;;;;;;;;10.38;87.76;94704.81;5116074;28;1992;-54
2022/12/15 08:30:39;;;;;;;;;;;;;;;10.39;87.40;94704.63;5115997;28;968;-54
2022/12/15 08:33:05;;;;;;;;;;;;;;;10.57;86.33;94714.28;5115814;28;1104;-54
2022/12/15 08:35:31;;;;;;;;;;;;;;;10.88;84.93;94714.34;5115646;28;1029;-54
2022/12/15 08:37:59;;;;;;;;;;;;;;;11.46;82.79;94715.72;5115512;28;1637;-55
2022/12/15 08:40:25;;;;;;;;;;;;;;;11.77;80.63;94717.50;5115920;28;973;-54
2022/12/15 08:42:51;;;;;;;;;;;;;;;12.19;79.65;94724.22;5115798;28;1023;-54
2022/12/15 08:45:17;;;;;;;;;;;;;;;12.32;78.20;94730.81;5115547;28;1095;-55
2022/12/15 08:47:43;;;;;;;;;;;;;;;12.09;77.83;94731.69;5115377;28;1988;-55
2022/12/15 08:50:09;;;;;;;;;;;;;;;11.97;79.23;94723.25;5115500;28;1047;-55
2022/12/15 08:52:40;;;;;;;;;;;;;;;11.90;79.97;94724.97;5115358;28;1276;-55
2022/12/15 08:55:07;;;;;;;;;;;;;;;11.88;79.16;94729.66;5115701;27;1087;-54
2022/12/15 08:57:33;;;;;;;;;;;;;;;11.74;79.53;94739.28;5115404;28;953;-54
2022/12/15 09:00:00;;;;;;;;;;;;;;;11.81;79.98;94739.41;5115490;28;952;-54
2022/12/15 09:02:26;;;;;;;;;;;;;;;11.82;80.06;94743.75;5114049;28;973;-54
2022/12/15 09:04:52;;;;;;;;;;;;;;;11.76;80.61;94731.94;5115170;28;1040;-54
2022/12/15 09:07:18;;;;;;;;;;;;;;;11.66;81.18;94725.97;5115146;28;1882;-55
2022/12/15 09:09:44;;;;;;;;;;;;;;;11.74;80.81;94723.22;5115246;28;1012;-56
2022/12/15 09:12:11;;;;;;;;;;;;;;;11.73;81.17;94719.72;5114913;28;1102;-56
2022/12/15 09:14:37;;;;;;;;;;;;;;;11.76;81.27;94731.94;5115043;28;964;-56
2022/12/15 09:17:03;;;;;;;;;;;;;;;11.80;81.18;94727.00;5115030;28;960;-56
2022/12/15 09:19:29;;;;;;;;;;;;;;;11.87;81.05;94736.84;5114911;28;988;-56
2022/12/15 09:21:55;;;;;;;;;;;;;;;12.02;80.58;94720.84;5114800;28;925;-56
2022/12/15 09:24:23;;;;;;;;;;;;;;;12.23;79.54;94722.00;5114792;28;1186;-56
2022/12/15 09:26:49;;;;;;;;;;;;;;;12.50;79.00;94732.16;5114921;28;1040;-56
2022/12/15 09:29:15;;;;;;;;;;;;;;;13.31;76.89;94734.06;5114578;28;1913;-55
2022/12/15 09:31:43;;;;;;;;;;;;;;;13.57;74.89;94738.09;5114679;28;969;-55
2022/12/15 09:34:11;;;;;;;;;;;;;;;13.17;76.84;94735.75;5114580;28;1037;-55
2022/12/15 09:36:37;;;;;;;;;;;;;;;15.45;68.31;94727.75;5114076;28;1623;-54
2022/12/15 09:51:18;;;;;;;;;;;;;;;15.21;69.06;94740.66;5131897;27;1272;-55
2022/12/15 09:53:45;;;;;;;;;;;;;;;17.54;61.82;94750.81;5131589;27;1067;-54
2022/12/15 09:56:19;;;;;;;;;;;;;;;16.47;64.39;94748.28;5131343;27;1603;-55
2022/12/15 09:58:45;;;;;;;;;;;;;;;15.10;69.79;94744.78;5131558;27;2002;-55
2022/12/15 10:01:14;;;;;;;;;;;;;;;14.29;71.83;94729.09;5131389;27;952;-55
2022/12/15 10:03:49;;;;;;;;;;;;;;;13.70;74.38;94740.09;5131263;27;1068;-55
2022/12/15 10:06:30;;;;;;;;;;;;;;;13.22;75.97;94732.47;5131382;27;1263;-55
2022/12/15 10:08:59;;;;;;;;;;;;;;;13.20;76.17;94737.22;5131521;27;1053;-56
2022/12/15 10:11:43;;;;;;;;;;;;;;;13.22;75.77;94745.91;5131161;27;1138;-56
2022/12/15 10:14:21;;;;;;;;;;;;;;;13.34;75.61;94739.09;5131123;27;1615;-56
2022/12/15 10:16:56;;;;;;;;;;;;;;;13.63;75.15;94734.66;5130929;27;1123;-56
2022/12/15 10:19:31;;;;;;;;;;;;;;;14.15;73.11;94740.72;5131274;27;1979;-56
2022/12/15 10:21:57;;;;;;;;;;;;;;;15.83;66.38;94722.69;5131157;27;1011;-56
2022/12/15 10:24:27;;;;;;;;;;;;;;;17.08;62.92;94727.50;5130977;27;1084;-57
2022/12/15 10:27:16;;;;;;;;;;;;;;;16.72;63.65;94731.47;5130970;27;1092;-57
2022/12/15 10:29:43;;;;;;;;;;;;;;;15.71;67.12;94741.31;5130782;27;1039;-57
2022/12/15 10:32:39;;;;;;;;;;;;;;;16.61;64.42;94730.22;5129779;28;1043;-57
2022/12/15 10:35:07;;;;;;;;;;;;;;;15.74;65.69;94738.22;5125660;28;1262;-58
2022/12/15 10:37:33;;;;;;;;;;;;;;;14.72;69.30;94738.94;5130594;27;1045;-57
2022/12/15 10:39:59;;;;;;;;;;;;;;;14.66;69.60;94731.66;5130473;27;1902;-57
2022/12/15 10:42:25;;;;;;;;;;;;;;;15.41;67.87;94728.13;5130645;27;1047;-57
2022/12/15 10:44:53;;;;;;;;;;;;;;;15.37;68.14;94739.53;5130877;27;1023;-57
2022/12/15 10:47:27;;;;;;;;;;;;;;;14.72;70.39;94731.72;5129833;27;1607;-57
2022/12/15 10:49:54;;;;;;;;;;;;;;;14.46;70.85;94740.41;5110018;28;1080;-57
2022/12/15 10:52:36;;;;;;;;;;;;;;;16.84;62.29;94746.00;5096283;28;1039;-57
2022/12/15 10:55:21;;;;;;;;;;;;;;;16.02;64.72;94739.94;5096648;28;1389;-57
2022/12/15 10:57:58;;;;;;;;;;;;;;;15.37;66.80;94740.34;5096236;28;1103;-57
2022/12/15 11:00:27;;;;;;;;;;;;;;;16.69;62.42;94734.56;5096325;28;1906;-57
2022/12/15 11:02:53;;;;;;;;;;;;;;;17.76;58.88;94735.94;5096137;28;1031;-57
2022/12/15 11:05:19;;;;;;;;;;;;;;;16.46;63.12;94745.78;5096358;28;1035;-57
2022/12/15 11:07:45;;;;;;;;;;;;;;;17.15;62.07;94736.41;5096064;28;1120;-57
2022/12/15 11:10:18;;;;;;;;;;;;;;;19.13;56.69;94749.97;5095088;28;1100;-57
2022/12/15 11:12:53;;;;;;;;;;;;;;;17.70;58.72;94742.22;5095986;28;973;-57
2022/12/15 11:15:22;;;;;;;;;;;;;;;16.26;64.18;94738.53;5096104;28;937;-57
2022/12/15 11:17:59;;;;;;;;;;;;;;;17.48;60.80;94740.88;5095778;28;1028;-57
2022/12/15 11:20:37;;;;;;;;;;;;;;;16.22;64.08;94734.59;5095897;28;1898;-57
2022/12/15 11:23:08;;;;;;;;;;;;;;;17.45;60.36;94735.88;5096015;28;972;-57
2022/12/15 11:25:40;;;;;;;;;;;;;;;16.38;64.29;94726.06;5095695;28;1044;-57
2022/12/15 11:28:14;;;;;;;;;;;;;;;15.71;66.94;94741.31;5095664;28;1060;-57
2022/12/15 11:30:43;;;;;;;;;;;;;;;16.26;64.70;94733.13;5095821;28;1040;-57
2022/12/15 11:33:09;;;;;;;;;;;;;;;16.86;62.24;94727.72;5095726;28;1114;-57
2022/12/15 11:35:45;;;;;;;;;;;;;;;17.03;61.90;94730.81;5095586;28;1052;-57
2022/12/15 11:38:27;;;;;;;;;;;;;;;18.46;57.20;94734.31;5095628;28;1040;-57
2022/12/15 11:40:57;;;;;;;;;;;;;;;18.82;55.95;94730.03;5095716;28;1901;-57
2022/12/15 11:43:48;;;;;;;;;;;;;;;18.36;56.85;94725.81;5095687;28;1003;-57
2022/12/15 11:46:19;;;;;;;;;;;;;;;17.26;59.64;94726.78;5095570;28;1203;-57
2022/12/15 11:48:45;;;;;;;;;;;;;;;16.59;62.40;94730.41;5107019;28;1570;-57
2022/12/15 11:51:16;;;;;;;;;;;;;;;16.20;64.96;94731.25;5115538;28;1328;-57
2022/12/15 11:53:48;;;;;;;;;;;;;;;15.94;66.59;94723.97;5115876;28;960;-56
2022/12/15 11:56:17;;;;;;;;;;;;;;;15.67;68.39;94729.28;5115772;28;1028;-57
2022/12/15 11:59:03;;;;;;;;;;;;;;;15.55;68.39;94730.88;5115496;28;1933;-57
2022/12/15 12:02:02;;;;;;;;;;;;;;;15.32;69.09;94732.03;5103888;28;1160;-57
2022/12/15 12:04:31;;;;;;;;;;;;;;;15.13;70.33;94732.78;5102581;28;1570;-57
2022/12/15 12:07:07;;;;;;;;;;;;;;;15.04;70.56;94729.41;5114207;28;1024;-56
2022/12/15 12:09:45;;;;;;;;;;;;;;;14.97;70.68;94725.88;5114113;28;995;-56
2022/12/15 12:12:15;;;;;;;;;;;;;;;14.82;70.68;94731.38;5115219;28;992;-57
2022/12/15 12:15:03;;;;;;;;;;;;;;;14.75;71.58;94733.16;5115131;28;1127;-59
2022/12/15 12:17:36;;;;;;;;;;;;;;;14.72;71.20;94737.09;5114996;28;1394;-56
2022/12/15 12:20:07;;;;;;;;;;;;;;;14.70;71.57;94739.16;5115059;28;1914;-56
2022/12/15 12:22:36;;;;;;;;;;;;;;;14.59;70.84;94737.00;5114927;28;1049;-56
2022/12/15 12:25:14;;;;;;;;;;;;;;;14.41;71.95;94729.38;5115142;28;1056;-56
2022/12/15 12:27:44;;;;;;;;;;;;;;;14.28;72.98;94738.16;5114899;28;1052;-56
2022/12/15 12:30:11;;;;;;;;;;;;;;;14.22;73.51;94742.47;5113847;28;994;-57
2022/12/15 12:32:40;;;;;;;;;;;;;;;14.20;73.40;94752.56;5114774;28;1035;-56
2022/12/15 12:35:14;;;;;;;;;;;;;;;14.18;73.34;94762.69;5114807;28;1024;-58
2022/12/15 12:37:48;;;;;;;;;;;;;;;14.23;73.48;94765.66;5114733;28;1072;-56
2022/12/15 12:40:17;;;;;;;;;;;;;;;14.23;74.19;94762.13;5114684;28;1917;-56
2022/12/15 12:42:50;;;;;;;;;;;;;;;14.06;74.76;94756.19;5114688;28;964;-56
2022/12/15 12:45:18;;;;;;;;;;;;;;;13.88;75.19;94751.22;5114584;28;1036;-57
2022/12/15 12:47:49;;;;;;;;;;;;;;;13.99;75.26;94744.53;5110094;28;1239;-56
2022/12/15 12:50:25;;;;;;;;;;;;;;;13.88;75.98;94751.22;5093012;28;1108;-57
2022/12/15 12:52:56;;;;;;;;;;;;;;;13.73;76.36;94753.16;5094269;28;972;-57
2022/12/15 12:55:35;;;;;;;;;;;;;;;13.75;76.41;94743.88;5094057;28;1031;-57
2022/12/15 12:58:01;;;;;;;;;;;;;;;13.79;77.08;94753.22;5093946;28;1040;-57
2022/12/15 13:00:28;;;;;;;;;;;;;;;13.75;77.15;94762.66;5093976;28;1982;-57
2022/12/15 13:03:07;;;;;;;;;;;;;;;13.78;77.08;94759.63;5094095;28;941;-57
2022/12/15 13:05:36;;;;;;;;;;;;;;;13.75;76.86;94776.09;5093881;28;999;-57
2022/12/15 13:08:05;;;;;;;;;;;;;;;13.69;76.86;94773.34;5093894;28;964;-57
2022/12/15 13:10:36;;;;;;;;;;;;;;;13.63;77.70;94766.88;5093620;28;993;-57
2022/12/15 13:13:14;;;;;;;;;;;;;;;13.48;78.33;94775.81;5093675;28;1040;-57
2022/12/15 13:15:56;;;;;;;;;;;;;;;13.39;78.80;94778.78;5093617;28;995;-57
2022/12/15 13:18:24;;;;;;;;;;;;;;;13.31;79.30;94770.84;5093860;28;948;-57
2022/12/15 13:20:54;;;;;;;;;;;;;;;13.29;79.34;94768.31;5093499;28;1906;-57
2022/12/15 13:23:20;;;;;;;;;;;;;;;13.35;79.55;94772.13;5093596;28;1112;-57
2022/12/15 13:25:46;;;;;;;;;;;;;;;13.34;79.73;94779.34;5093730;28;985;-57
2022/12/15 13:28:15;;;;;;;;;;;;;;;13.28;80.06;94780.09;5093744;28;964;-57
2022/12/15 13:30:59;;;;;;;;;;;;;;;13.27;79.81;94775.72;5093535;28;1055;-57
2022/12/15 13:33:25;;;;;;;;;;;;;;;13.25;80.50;94775.91;5093430;28;1000;-56
2022/12/15 13:35:52;;;;;;;;;;;;;;;13.23;81.16;94772.56;5092290;28;1057;-57
2022/12/15 13:38:18;;;;;;;;;;;;;;;13.18;81.46;94787.56;5093696;28;1020;-56
2022/12/15 13:40:47;;;;;;;;;;;;;;;13.16;82.42;94782.38;5093455;28;1913;-57
2022/12/15 13:43:25;;;;;;;;;;;;;;;13.15;82.60;94788.78;5093510;28;1046;-56
2022/12/15 13:45:56;;;;;;;;;;;;;;;13.11;82.39;94794.69;5093350;28;1032;-57
2022/12/15 13:48:43;;;;;;;;;;;;;;;13.09;82.64;94795.72;5102879;28;1260;-57
2022/12/15 13:51:27;;;;;;;;;;;;;;;13.06;82.07;94789.91;5113588;28;1083;-57
2022/12/15 13:53:59;;;;;;;;;;;;;;;13.05;83.19;94797.13;5113809;28;1023;-56
2022/12/15 13:56:36;;;;;;;;;;;;;;;13.00;82.81;94794.16;5113601;28;984;-57
2022/12/15 13:59:05;;;;;;;;;;;;;;;13.03;83.22;94799.16;5113659;28;1909;-57
2022/12/15 14:01:32;;;;;;;;;;;;;;;13.04;82.87;94808.03;5113631;28;1066;-57
2022/12/15 14:04:18;;;;;;;;;;;;;;;13.02;83.40;94810.91;5113668;28;1032;-57
2022/12/15 14:06:55;;;;;;;;;;;;;;;12.97;83.68;94818.66;5112073;28;1282;-57
2022/12/15 14:09:24;;;;;;;;;;;;;;;12.92;84.36;94813.03;5113816;28;1035;-57
2022/12/15 14:11:50;;;;;;;;;;;;;;;12.91;83.19;94814.03;5113670;28;1040;-57
2022/12/15 14:14:18;;;;;;;;;;;;;;;12.84;83.66;94813.09;5113601;28;968;-57
2022/12/15 14:16:45;;;;;;;;;;;;;;;12.74;84.34;94815.22;5113479;28;1054;-57
2022/12/15 14:19:12;;;;;;;;;;;;;;;12.72;84.08;94817.25;5113444;28;1918;-56
2022/12/15 14:21:38;;;;;;;;;;;;;;;12.68;83.59;94812.25;5113280;28;972;-56
2022/12/15 14:24:24;;;;;;;;;;;;;;;12.61;84.25;94819.34;5111968;28;1132;-57
2022/12/15 14:26:50;;;;;;;;;;;;;;;12.52;84.53;94820.47;5115738;28;1091;-57
2022/12/15 14:29:16;;;;;;;;;;;;;;;12.48;84.11;94821.81;5117198;28;1024;-56
2022/12/15 14:31:45;;;;;;;;;;;;;;;12.44;85.16;94832.06;5117192;28;973;-57
2022/12/15 14:34:17;;;;;;;;;;;;;;;12.37;85.37;94843.69;5117603;28;1205;-57
2022/12/15 14:36:44;;;;;;;;;;;;;;;12.29;85.40;94841.91;5117214;28;964;-57
2022/12/15 14:39:31;;;;;;;;;;;;;;;12.21;85.24;94848.16;5116961;28;1926;-57
2022/12/15 14:41:57;;;;;;;;;;;;;;;12.13;85.42;94847.41;5115624;28;1148;-57
2022/12/15 14:44:47;;;;;;;;;;;;;;;12.07;85.81;94854.31;5116969;28;1135;-56
2022/12/15 14:47:22;;;;;;;;;;;;;;;11.95;86.15;94859.25;5113852;28;1047;-57
2022/12/15 14:49:49;;;;;;;;;;;;;;;11.80;87.25;94859.13;5096109;28;1245;-56
2022/12/15 14:52:27;;;;;;;;;;;;;;;11.70;87.42;94869.19;5096516;28;1048;-56
2022/12/15 14:54:55;;;;;;;;;;;;;;;11.66;88.27;94873.22;5096379;28;1032;-56
2022/12/15 14:57:21;;;;;;;;;;;;;;;11.60;86.77;94880.13;5096209;28;1100;-56
2022/12/15 14:59:47;;;;;;;;;;;;;;;11.42;87.56;94883.06;5096029;28;1905;-56
2022/12/15 15:02:21;;;;;;;;;;;;;;;11.42;87.93;94877.69;5096369;28;984;-57
2022/12/15 15:04:55;;;;;;;;;;;;;;;11.49;86.92;94884.00;5096198;28;1000;-56
2022/12/15 15:07:21;;;;;;;;;;;;;;;11.42;86.58;94876.84;5096131;28;956;-56
2022/12/15 15:09:47;;;;;;;;;;;;;;;11.27;86.47;94876.75;5094710;28;1221;-56
2022/12/15 15:12:16;;;;;;;;;;;;;;;11.13;87.26;94884.47;5096206;28;993;-56
2022/12/15 15:14:51;;;;;;;;;;;;;;;11.15;87.18;94886.97;5095840;28;1057;-56
2022/12/15 15:17:20;;;;;;;;;;;;;;;11.19;85.84;94890.13;5094759;28;1035;-57
2022/12/15 15:19:55;;;;;;;;;;;;;;;10.96;85.96;94898.88;5095809;28;1988;-57
2022/12/15 15:22:30;;;;;;;;;;;;;;;10.80;87.30;94893.56;5095738;28;961;-56
2022/12/15 15:24:56;;;;;;;;;;;;;;;10.82;86.79;94899.56;5095755;28;1119;-57
2022/12/15 15:27:22;;;;;;;;;;;;;;;10.79;86.95;94892.69;5095866;28;1055;-56
2022/12/15 15:29:48;;;;;;;;;;;;;;;10.80;86.27;94899.72;5095726;28;1027;-57
2022/12/15 15:32:16;;;;;;;;;;;;;;;10.77;85.50;94900.06;5111687;28;3209;-61
2022/12/15 15:34:43;;;;;;;;;;;;;;;10.70;84.98;94899.91;5114807;28;977;-58
2022/12/15 15:37:15;;;;;;;;;;;;;;;10.69;84.69;94905.44;5114897;28;972;-58
2022/12/15 15:39:41;;;;;;;;;;;;;;;10.61;84.82;94910.78;5114401;28;2992;-58
2022/12/15 15:42:12;;;;;;;;;;;;;;;10.48;85.57;94906.75;5115915;28;1020;-56
2022/12/15 15:44:39;;;;;;;;;;;;;;;10.40;85.64;94905.94;5115946;28;1044;-55
2022/12/15 15:47:05;;;;;;;;;;;;;;;10.33;86.67;94916.44;5115681;28;1040;-57
2022/12/15 15:51:54;;;;;;;;;;;;;;;10.33;87.25;94919.09;5131981;27;1282;-57
2022/12/15 15:54:22;;;;;;;;;;;;;;;10.30;88.26;94927.41;5129667;27;5020;-57
2022/12/15 15:56:48;;;;;;;;;;;;;;;10.37;86.60;94928.47;5117593;28;3809;-57
2022/12/15 15:59:16;;;;;;;;;;;;;;;10.30;86.58;94936.31;5131591;28;1106;-58
2022/12/15 16:01:43;;;;;;;;;;;;;;;10.22;86.98;94924.72;5117246;27;3660;-58
2022/12/15 16:04:09;;;;;;;;;;;;;;;10.20;86.27;94929.41;5111271;28;1032;-57
2022/12/15 16:06:35;;;;;;;;;;;;;;;10.12;86.00;94938.25;5110833;28;1086;-58
2022/12/15 16:09:05;;;;;;;;;;;;;;;9.98;86.73;94945.06;5110881;28;1039;-58
2022/12/15 16:11:32;;;;;;;;;;;;;;;10.04;85.60;94940.91;5110516;28;1994;-57